sensor_id;sensor_type;location;lat;lon;timestamp;pressure;altitude;pressure_sealevel;temperature;humidity
62038;BME280;47991;42.974;12.082;2023-05-09T00:01:34;97567.73;;;23.30;54.85
62038;BME280;47991;42.974;12.082;2023-05-09T00:04:15;97569.02;;;23.28;54.97
62038;BME280;47991;42.974;12.082;2023-05-09T00:09:38;97568.94;;;23.25;54.76
62038;BME280;47991;42.974;12.082;2023-05-09T00:12:08;97562.55;;;23.24;54.68
62038;BME280;47991;42.974;12.082;2023-05-09T00:14:37;97565.73;;;23.22;54.98
62038;BME280;47991;42.974;12.082;2023-05-09T00:17:20;97566.02;;;23.16;55.02
62038;BME280;47991;42.974;12.082;2023-05-09T00:20:02;97558.86;;;23.16;55.08
62038;BME280;47991;42.974;12.082;2023-05-09T00:22:46;97550.45;;;23.15;55.06
62038;BME280;47991;42.974;12.082;2023-05-09T00:25:13;97549.79;;;23.14;55.07
62038;BME280;47991;42.974;12.082;2023-05-09T00:27:40;97550.92;;;23.13;54.97
62038;BME280;47991;42.974;12.082;2023-05-09T00:30:07;97545.92;;;23.13;55.04
62038;BME280;47991;42.974;12.082;2023-05-09T00:32:48;97544.79;;;23.11;55.05
62038;BME280;47991;42.974;12.082;2023-05-09T00:35:16;97546.15;;;23.10;55.06
62038;BME280;47991;42.974;12.082;2023-05-09T00:37:43;97540.95;;;23.10;55.16
62038;BME280;47991;42.974;12.082;2023-05-09T00:40:10;97541.36;;;23.09;54.96
62038;BME280;47991;42.974;12.082;2023-05-09T00:42:37;97537.31;;;23.08;54.95
62038;BME280;47991;42.974;12.082;2023-05-09T00:45:05;97539.89;;;23.07;55.15
62038;BME280;47991;42.974;12.082;2023-05-09T00:47:46;97539.45;;;23.06;55.06
62038;BME280;47991;42.974;12.082;2023-05-09T00:50:27;97538.41;;;23.05;55.18
62038;BME280;47991;42.974;12.082;2023-05-09T00:52:53;97538.86;;;23.04;55.08
62038;BME280;47991;42.974;12.082;2023-05-09T00:55:21;97536.37;;;23.04;55.20
62038;BME280;47991;42.974;12.082;2023-05-09T00:58:02;97537.15;;;23.03;55.19
62038;BME280;47991;42.974;12.082;2023-05-09T01:00:44;97537.26;;;23.02;55.29
62038;BME280;47991;42.974;12.082;2023-05-09T01:03:25;97527.81;;;23.01;55.21
62038;BME280;47991;42.974;12.082;2023-05-09T01:09:04;97525.19;;;23.00;55.34
62038;BME280;47991;42.974;12.082;2023-05-09T01:15:00;97528.56;;;22.98;55.38
62038;BME280;47991;42.974;12.082;2023-05-09T01:26:04;97521.98;;;22.94;55.34
62038;BME280;47991;42.974;12.082;2023-05-09T01:31:47;97526.36;;;22.92;55.51
62038;BME280;47991;42.974;12.082;2023-05-09T01:34:29;97525.33;;;22.89;55.63
62038;BME280;47991;42.974;12.082;2023-05-09T01:37:13;97522.27;;;22.91;55.66
62038;BME280;47991;42.974;12.082;2023-05-09T01:39:46;97523.12;;;22.92;55.65
62038;BME280;47991;42.974;12.082;2023-05-09T01:43:17;97519.80;;;22.93;55.78
62038;BME280;47991;42.974;12.082;2023-05-09T01:45:36;97513.99;;;22.93;55.71
62038;BME280;47991;42.974;12.082;2023-05-09T01:48:19;97508.83;;;22.94;55.65
62038;BME280;47991;42.974;12.082;2023-05-09T01:50:48;97506.41;;;22.95;55.73
62038;BME280;47991;42.974;12.082;2023-05-09T01:53:30;97506.73;;;22.96;55.51
62038;BME280;47991;42.974;12.082;2023-05-09T01:56:11;97506.36;;;22.96;55.39
62038;BME280;47991;42.974;12.082;2023-05-09T01:58:39;97509.36;;;22.97;55.63
62038;BME280;47991;42.974;12.082;2023-05-09T02:01:22;97507.84;;;22.95;55.38
62038;BME280;47991;42.974;12.082;2023-05-09T02:04:04;97508.83;;;22.94;55.54
62038;BME280;47991;42.974;12.082;2023-05-09T02:06:47;97510.49;;;22.94;55.41
62038;BME280;47991;42.974;12.082;2023-05-09T02:09:19;97510.33;;;22.94;55.29
62038;BME280;47991;42.974;12.082;2023-05-09T02:12:00;97507.27;;;22.94;55.37
62038;BME280;47991;42.974;12.082;2023-05-09T02:14:28;97506.27;;;22.93;55.41
62038;BME280;47991;42.974;12.082;2023-05-09T02:16:55;97505.61;;;22.92;55.40
62038;BME280;47991;42.974;12.082;2023-05-09T02:19:22;97507.48;;;22.91;55.49
62038;BME280;47991;42.974;12.082;2023-05-09T02:22:02;97512.23;;;22.90;55.33
62038;BME280;47991;42.974;12.082;2023-05-09T02:24:44;97517.00;;;22.89;55.46
62038;BME280;47991;42.974;12.082;2023-05-09T02:27:13;97512.95;;;22.88;55.39
62038;BME280;47991;42.974;12.082;2023-05-09T02:29:49;97512.84;;;22.87;55.56
62038;BME280;47991;42.974;12.082;2023-05-09T02:32:33;97509.35;;;22.86;55.54
62038;BME280;47991;42.974;12.082;2023-05-09T02:35:16;97512.66;;;22.85;55.64
62038;BME280;47991;42.974;12.082;2023-05-09T02:37:44;97514.31;;;22.85;55.44
62038;BME280;47991;42.974;12.082;2023-05-09T02:40:27;97513.70;;;22.84;55.58
62038;BME280;47991;42.974;12.082;2023-05-09T02:42:55;97512.47;;;22.83;55.64
62038;BME280;47991;42.974;12.082;2023-05-09T02:45:22;97505.30;;;22.83;55.61
62038;BME280;47991;42.974;12.082;2023-05-09T02:48:03;97502.98;;;22.83;55.67
62038;BME280;47991;42.974;12.082;2023-05-09T02:50:44;97503.09;;;22.81;55.71
62038;BME280;47991;42.974;12.082;2023-05-09T02:53:25;97506.38;;;22.81;55.49
62038;BME280;47991;42.974;12.082;2023-05-09T02:56:06;97505.35;;;22.80;55.71
62038;BME280;47991;42.974;12.082;2023-05-09T02:58:48;97503.44;;;22.79;55.77
62038;BME280;47991;42.974;12.082;2023-05-09T03:01:30;97507.02;;;22.79;55.66
62038;BME280;47991;42.974;12.082;2023-05-09T03:04:11;97507.39;;;22.79;55.73
62038;BME280;47991;42.974;12.082;2023-05-09T03:06:52;97502.38;;;22.79;55.67
62038;BME280;47991;42.974;12.082;2023-05-09T03:09:32;97503.33;;;22.78;55.70
62038;BME280;47991;42.974;12.082;2023-05-09T03:12:00;97506.39;;;22.78;55.73
62038;BME280;47991;42.974;12.082;2023-05-09T03:14:28;97510.52;;;22.78;55.71
62038;BME280;47991;42.974;12.082;2023-05-09T03:17:00;97508.38;;;22.78;55.86
62038;BME280;47991;42.974;12.082;2023-05-09T03:19:27;97507.93;;;22.79;55.81
62038;BME280;47991;42.974;12.082;2023-05-09T03:22:08;97504.33;;;22.79;55.58
62038;BME280;47991;42.974;12.082;2023-05-09T03:24:35;97504.17;;;22.79;55.73
62038;BME280;47991;42.974;12.082;2023-05-09T03:27:17;97508.18;;;22.78;55.74
62038;BME280;47991;42.974;12.082;2023-05-09T03:29:44;97507.39;;;22.79;55.70
62038;BME280;47991;42.974;12.082;2023-05-09T03:32:25;97507.10;;;22.78;55.72
62038;BME280;47991;42.974;12.082;2023-05-09T03:34:53;97513.55;;;22.79;55.83
62038;BME280;47991;42.974;12.082;2023-05-09T03:37:21;97511.55;;;22.79;55.69
62038;BME280;47991;42.974;12.082;2023-05-09T03:40:02;97511.74;;;22.79;55.60
62038;BME280;47991;42.974;12.082;2023-05-09T03:42:29;97516.27;;;22.78;55.75
62038;BME280;47991;42.974;12.082;2023-05-09T03:44:56;97516.69;;;22.78;55.82
62038;BME280;47991;42.974;12.082;2023-05-09T03:47:23;97522.10;;;22.78;55.68
62038;BME280;47991;42.974;12.082;2023-05-09T03:49:50;97523.20;;;22.77;55.84
62038;BME280;47991;42.974;12.082;2023-05-09T03:52:30;97526.30;;;22.77;55.76
62038;BME280;47991;42.974;12.082;2023-05-09T03:54:58;97530.98;;;22.77;55.81
62038;BME280;47991;42.974;12.082;2023-05-09T03:57:39;97533.38;;;22.76;55.86
62038;BME280;47991;42.974;12.082;2023-05-09T04:00:08;97533.24;;;22.76;55.74
62038;BME280;47991;42.974;12.082;2023-05-09T04:02:35;97533.83;;;22.75;55.76
62038;BME280;47991;42.974;12.082;2023-05-09T04:05:03;97535.64;;;22.75;55.84
62038;BME280;47991;42.974;12.082;2023-05-09T04:07:44;97529.60;;;22.74;55.75
62038;BME280;47991;42.974;12.082;2023-05-09T04:10:25;97529.52;;;22.73;55.65
62038;BME280;47991;42.974;12.082;2023-05-09T04:12:54;97531.52;;;22.73;55.85
62038;BME280;47991;42.974;12.082;2023-05-09T04:15:21;97532.79;;;22.73;55.79
62038;BME280;47991;42.974;12.082;2023-05-09T04:18:02;97530.77;;;22.71;55.97
62038;BME280;47991;42.974;12.082;2023-05-09T04:20:43;97534.04;;;22.71;55.98
62038;BME280;47991;42.974;12.082;2023-05-09T04:23:11;97539.66;;;22.70;55.85
62038;BME280;47991;42.974;12.082;2023-05-09T04:25:38;97540.23;;;22.70;55.83
62038;BME280;47991;42.974;12.082;2023-05-09T04:28:05;97541.00;;;22.69;55.89
62038;BME280;47991;42.974;12.082;2023-05-09T04:30:47;97540.12;;;22.69;55.82
62038;BME280;47991;42.974;12.082;2023-05-09T04:33:29;97543.97;;;22.70;55.88
62038;BME280;47991;42.974;12.082;2023-05-09T04:36:10;97539.98;;;22.71;55.91
62038;BME280;47991;42.974;12.082;2023-05-09T04:38:51;97542.67;;;22.71;55.68
62038;BME280;47991;42.974;12.082;2023-05-09T04:41:18;97543.02;;;22.71;55.87
62038;BME280;47991;42.974;12.082;2023-05-09T04:43:45;97547.66;;;22.72;55.80
62038;BME280;47991;42.974;12.082;2023-05-09T04:46:18;97544.45;;;22.71;55.86
62038;BME280;47991;42.974;12.082;2023-05-09T04:49:01;97543.88;;;22.72;55.99
62038;BME280;47991;42.974;12.082;2023-05-09T04:51:28;97546.58;;;22.71;55.62
62038;BME280;47991;42.974;12.082;2023-05-09T04:53:55;97550.73;;;22.71;55.73
62038;BME280;47991;42.974;12.082;2023-05-09T04:56:37;97547.36;;;22.71;55.76
62038;BME280;47991;42.974;12.082;2023-05-09T04:59:03;97547.24;;;22.70;55.74
62038;BME280;47991;42.974;12.082;2023-05-09T05:01:31;97547.10;;;22.70;55.25
62038;BME280;47991;42.974;12.082;2023-05-09T05:04:11;97548.35;;;22.70;55.44
62038;BME280;47991;42.974;12.082;2023-05-09T05:06:53;97546.46;;;22.68;55.40
62038;BME280;47991;42.974;12.082;2023-05-09T05:09:35;97544.98;;;22.69;55.24
62038;BME280;47991;42.974;12.082;2023-05-09T05:12:03;97549.78;;;22.70;54.97
62038;BME280;47991;42.974;12.082;2023-05-09T05:14:46;97554.98;;;22.70;54.89
62038;BME280;47991;42.974;12.082;2023-05-09T05:17:28;97556.63;;;22.70;54.87
62038;BME280;47991;42.974;12.082;2023-05-09T05:20:09;97556.98;;;22.70;54.83
62038;BME280;47991;42.974;12.082;2023-05-09T05:22:37;97552.39;;;22.69;54.45
62038;BME280;47991;42.974;12.082;2023-05-09T05:25:18;97548.63;;;22.66;54.36
62038;BME280;47991;42.974;12.082;2023-05-09T05:27:46;97550.63;;;22.66;54.50
62038;BME280;47991;42.974;12.082;2023-05-09T05:30:13;97547.59;;;22.66;54.09
62038;BME280;47991;42.974;12.082;2023-05-09T05:32:55;97550.55;;;22.63;53.61
62038;BME280;47991;42.974;12.082;2023-05-09T05:35:21;97554.27;;;22.61;53.55
62038;BME280;47991;42.974;12.082;2023-05-09T05:38:02;97553.23;;;22.60;53.41
62038;BME280;47991;42.974;12.082;2023-05-09T05:40:43;97556.89;;;22.60;53.42
62038;BME280;47991;42.974;12.082;2023-05-09T05:43:10;97557.65;;;22.62;53.63
62038;BME280;47991;42.974;12.082;2023-05-09T05:45:50;97561.79;;;22.64;53.49
62038;BME280;47991;42.974;12.082;2023-05-09T05:48:31;97554.72;;;22.65;53.24
62038;BME280;47991;42.974;12.082;2023-05-09T05:51:12;97553.59;;;22.65;53.46
62038;BME280;47991;42.974;12.082;2023-05-09T05:53:38;97553.52;;;22.64;53.09
62038;BME280;47991;42.974;12.082;2023-05-09T05:56:05;97555.98;;;22.60;52.99
62038;BME280;47991;42.974;12.082;2023-05-09T05:58:32;97556.89;;;22.60;52.89
62038;BME280;47991;42.974;12.082;2023-05-09T06:01:13;97555.76;;;22.60;53.16
62038;BME280;47991;42.974;12.082;2023-05-09T06:03:40;97557.55;;;22.63;53.10
62038;BME280;47991;42.974;12.082;2023-05-09T06:06:21;97562.05;;;22.65;53.40
62038;BME280;47991;42.974;12.082;2023-05-09T06:08:48;97561.70;;;22.67;53.42
62038;BME280;47991;42.974;12.082;2023-05-09T06:11:15;97562.38;;;22.70;53.44
62038;BME280;47991;42.974;12.082;2023-05-09T06:13:56;97553.29;;;22.71;53.61
62038;BME280;47991;42.974;12.082;2023-05-09T06:16:23;97552.67;;;22.72;53.78
62038;BME280;47991;42.974;12.082;2023-05-09T06:19:04;97551.25;;;22.74;53.60
62038;BME280;47991;42.974;12.082;2023-05-09T06:21:32;97554.34;;;22.75;53.70
62038;BME280;47991;42.974;12.082;2023-05-09T06:24:00;97557.71;;;22.76;53.68
62038;BME280;47991;42.974;12.082;2023-05-09T06:26:30;97555.13;;;22.77;53.72
62038;BME280;47991;42.974;12.082;2023-05-09T06:29:11;97553.45;;;22.78;53.74
62038;BME280;47991;42.974;12.082;2023-05-09T06:31:45;97552.49;;;22.78;53.71
62038;BME280;47991;42.974;12.082;2023-05-09T06:34:12;97556.09;;;22.79;53.56
62038;BME280;47991;42.974;12.082;2023-05-09T06:36:52;97554.76;;;22.79;53.66
62038;BME280;47991;42.974;12.082;2023-05-09T06:39:20;97556.58;;;22.79;53.38
62038;BME280;47991;42.974;12.082;2023-05-09T06:41:47;97550.45;;;22.77;52.55
62038;BME280;47991;42.974;12.082;2023-05-09T06:44:14;97549.89;;;22.75;52.86
62038;BME280;47991;42.974;12.082;2023-05-09T06:46:55;97547.39;;;22.73;52.47
62038;BME280;47991;42.974;12.082;2023-05-09T06:49:39;97545.65;;;22.70;52.21
62038;BME280;47991;42.974;12.082;2023-05-09T06:52:05;97542.52;;;22.68;52.03
62038;BME280;47991;42.974;12.082;2023-05-09T06:54:32;97545.23;;;22.66;51.99
62038;BME280;47991;42.974;12.082;2023-05-09T06:57:14;97546.34;;;22.64;51.98
62038;BME280;47991;42.974;12.082;2023-05-09T06:59:42;97547.40;;;22.61;51.68
62038;BME280;47991;42.974;12.082;2023-05-09T07:02:24;97543.95;;;22.60;51.60
62038;BME280;47991;42.974;12.082;2023-05-09T07:05:09;97534.73;;;22.55;51.00
62038;BME280;47991;42.974;12.082;2023-05-09T07:07:50;97530.61;;;22.49;50.90
62038;BME280;47991;42.974;12.082;2023-05-09T07:10:32;97523.14;;;22.49;51.12
62038;BME280;47991;42.974;12.082;2023-05-09T07:13:00;97523.70;;;22.54;51.23
62038;BME280;47991;42.974;12.082;2023-05-09T07:15:42;97529.86;;;22.58;51.58
62038;BME280;47991;42.974;12.082;2023-05-09T07:18:23;97531.99;;;22.60;51.22
62038;BME280;47991;42.974;12.082;2023-05-09T07:20:50;97534.43;;;22.64;51.26
62038;BME280;47991;42.974;12.082;2023-05-09T07:23:17;97533.79;;;22.67;51.40
62038;BME280;47991;42.974;12.082;2023-05-09T07:25:59;97536.61;;;22.70;51.61
62038;BME280;47991;42.974;12.082;2023-05-09T07:28:26;97537.79;;;22.73;51.34
62038;BME280;47991;42.974;12.082;2023-05-09T07:31:08;97541.17;;;22.76;51.33
62038;BME280;47991;42.974;12.082;2023-05-09T07:33:35;97540.99;;;22.78;51.28
62038;BME280;47991;42.974;12.082;2023-05-09T07:36:05;97538.31;;;22.80;51.34
62038;BME280;47991;42.974;12.082;2023-05-09T07:38:32;97538.39;;;22.82;51.33
62038;BME280;47991;42.974;12.082;2023-05-09T07:41:00;97534.22;;;22.84;51.32
62038;BME280;47991;42.974;12.082;2023-05-09T07:43:40;97537.48;;;22.86;51.28
62038;BME280;47991;42.974;12.082;2023-05-09T07:49:43;97538.30;;;22.87;51.11
62038;BME280;47991;42.974;12.082;2023-05-09T07:55:52;97532.85;;;22.89;51.07
62038;BME280;47991;42.974;12.082;2023-05-09T07:58:19;97534.52;;;22.91;51.20
62038;BME280;47991;42.974;12.082;2023-05-09T08:00:47;97534.54;;;22.93;51.37
62038;BME280;47991;42.974;12.082;2023-05-09T08:03:27;97527.52;;;22.95;51.33
62038;BME280;47991;42.974;12.082;2023-05-09T08:05:55;97530.63;;;22.97;51.58
62038;BME280;47991;42.974;12.082;2023-05-09T08:08:22;97528.06;;;23.00;51.48
62038;BME280;47991;42.974;12.082;2023-05-09T08:11:04;97526.48;;;23.01;51.69
62038;BME280;47991;42.974;12.082;2023-05-09T08:13:44;97527.94;;;23.03;51.79
62038;BME280;47991;42.974;12.082;2023-05-09T08:16:13;97522.02;;;23.05;51.89
62038;BME280;47991;42.974;12.082;2023-05-09T08:18:43;97520.45;;;23.07;52.09
62038;BME280;47991;42.974;12.082;2023-05-09T08:21:24;97518.34;;;23.09;52.28
62038;BME280;47991;42.974;12.082;2023-05-09T08:23:52;97524.35;;;23.10;52.14
62038;BME280;47991;42.974;12.082;2023-05-09T08:26:18;97521.48;;;23.12;52.23
62038;BME280;47991;42.974;12.082;2023-05-09T08:29:00;97522.02;;;23.14;52.26
62038;BME280;47991;42.974;12.082;2023-05-09T08:31:42;97523.83;;;23.16;52.44
62038;BME280;47991;42.974;12.082;2023-05-09T08:34:09;97524.77;;;23.18;52.24
62038;BME280;47991;42.974;12.082;2023-05-09T08:36:50;97529.05;;;23.21;52.18
62038;BME280;47991;42.974;12.082;2023-05-09T08:39:31;97531.84;;;23.22;52.37
62038;BME280;47991;42.974;12.082;2023-05-09T08:42:14;97529.79;;;23.25;52.49
62038;BME280;47991;42.974;12.082;2023-05-09T08:44:44;97531.89;;;23.28;52.49
62038;BME280;47991;42.974;12.082;2023-05-09T08:47:12;97526.92;;;23.31;52.56
62038;BME280;47991;42.974;12.082;2023-05-09T08:49:40;97525.24;;;23.34;52.60
62038;BME280;47991;42.974;12.082;2023-05-09T08:52:23;97525.89;;;23.37;52.64
62038;BME280;47991;42.974;12.082;2023-05-09T08:55:04;97521.54;;;23.40;52.50
62038;BME280;47991;42.974;12.082;2023-05-09T08:57:45;97522.02;;;23.42;52.33
62038;BME280;47991;42.974;12.082;2023-05-09T09:00:15;97520.20;;;23.44;52.44
62038;BME280;47991;42.974;12.082;2023-05-09T09:03:00;97515.84;;;23.47;52.62
62038;BME280;47991;42.974;12.082;2023-05-09T09:05:29;97512.50;;;23.50;52.38
62038;BME280;47991;42.974;12.082;2023-05-09T09:08:10;97511.42;;;23.52;52.38
62038;BME280;47991;42.974;12.082;2023-05-09T09:10:51;97504.68;;;23.55;52.36
62038;BME280;47991;42.974;12.082;2023-05-09T09:13:21;97503.73;;;23.58;52.18
62038;BME280;47991;42.974;12.082;2023-05-09T09:16:03;97508.45;;;23.59;51.70
62038;BME280;47991;42.974;12.082;2023-05-09T09:18:30;97509.39;;;23.61;51.82
62038;BME280;47991;42.974;12.082;2023-05-09T09:21:14;97505.00;;;23.62;50.63
62038;BME280;47991;42.974;12.082;2023-05-09T09:23:56;97501.30;;;23.61;50.91
62038;BME280;47991;42.974;12.082;2023-05-09T09:26:46;97494.15;;;23.62;50.96
62038;BME280;47991;42.974;12.082;2023-05-09T09:29:29;97494.37;;;23.64;50.76
62038;BME280;47991;42.974;12.082;2023-05-09T09:32:00;97482.02;;;23.65;50.90
62038;BME280;47991;42.974;12.082;2023-05-09T09:34:43;97483.14;;;23.64;51.12
62038;BME280;47991;42.974;12.082;2023-05-09T09:37:24;97477.14;;;23.65;51.11
62038;BME280;47991;42.974;12.082;2023-05-09T09:40:07;97474.33;;;23.66;50.95
62038;BME280;47991;42.974;12.082;2023-05-09T09:42:50;97473.21;;;23.66;51.26
62038;BME280;47991;42.974;12.082;2023-05-09T09:45:33;97464.70;;;23.67;51.18
62038;BME280;47991;42.974;12.082;2023-05-09T09:48:15;97468.40;;;23.68;51.34
62038;BME280;47991;42.974;12.082;2023-05-09T09:50:42;97469.88;;;23.69;51.69
62038;BME280;47991;42.974;12.082;2023-05-09T09:53:11;97468.52;;;23.70;52.36
62038;BME280;47991;42.974;12.082;2023-05-09T09:55:50;97468.77;;;23.72;52.45
62038;BME280;47991;42.974;12.082;2023-05-09T09:58:19;97465.61;;;23.73;52.75
62038;BME280;47991;42.974;12.082;2023-05-09T10:01:11;97470.17;;;23.74;53.03
62038;BME280;47991;42.974;12.082;2023-05-09T10:03:43;97467.25;;;23.75;53.31
62038;BME280;47991;42.974;12.082;2023-05-09T10:06:14;97461.16;;;23.76;53.25
62038;BME280;47991;42.974;12.082;2023-05-09T10:08:44;97454.98;;;23.77;53.14
62038;BME280;47991;42.974;12.082;2023-05-09T10:11:29;97449.39;;;23.77;54.39
62038;BME280;47991;42.974;12.082;2023-05-09T10:13:57;97448.52;;;23.79;54.61
62038;BME280;47991;42.974;12.082;2023-05-09T10:16:26;97450.36;;;23.80;55.20
62038;BME280;47991;42.974;12.082;2023-05-09T10:18:53;97449.67;;;23.82;55.52
62038;BME280;47991;42.974;12.082;2023-05-09T10:21:38;97450.37;;;23.82;56.13
62038;BME280;47991;42.974;12.082;2023-05-09T10:24:33;97450.53;;;23.83;56.71
62038;BME280;47991;42.974;12.082;2023-05-09T10:27:22;97440.31;;;23.84;56.63
62038;BME280;47991;42.974;12.082;2023-05-09T10:30:26;97440.01;;;23.85;56.25
62038;BME280;47991;42.974;12.082;2023-05-09T10:33:08;97440.96;;;23.85;56.44
62038;BME280;47991;42.974;12.082;2023-05-09T10:35:50;97444.98;;;23.84;56.21
62038;BME280;47991;42.974;12.082;2023-05-09T10:38:31;97438.81;;;23.85;56.21
62038;BME280;47991;42.974;12.082;2023-05-09T10:40:59;97434.48;;;23.87;56.36
62038;BME280;47991;42.974;12.082;2023-05-09T10:43:26;97430.41;;;23.88;56.26
62038;BME280;47991;42.974;12.082;2023-05-09T10:45:53;97427.39;;;23.89;56.41
62038;BME280;47991;42.974;12.082;2023-05-09T10:48:35;97422.98;;;23.90;56.34
62038;BME280;47991;42.974;12.082;2023-05-09T10:51:03;97419.10;;;23.91;56.57
62038;BME280;47991;42.974;12.082;2023-05-09T10:53:47;97411.98;;;23.92;56.63
62038;BME280;47991;42.974;12.082;2023-05-09T10:56:32;97408.63;;;23.94;56.84
62038;BME280;47991;42.974;12.082;2023-05-09T11:02:18;97404.07;;;23.96;56.66
62038;BME280;47991;42.974;12.082;2023-05-09T11:05:18;97405.81;;;23.97;56.61
62038;BME280;47991;42.974;12.082;2023-05-09T11:07:45;97403.01;;;23.98;56.61
62038;BME280;47991;42.974;12.082;2023-05-09T11:10:17;97401.48;;;23.98;56.37
62038;BME280;47991;42.974;12.082;2023-05-09T11:12:58;97400.20;;;23.99;56.47
62038;BME280;47991;42.974;12.082;2023-05-09T11:15:27;97396.78;;;23.99;56.47
62038;BME280;47991;42.974;12.082;2023-05-09T11:18:10;97391.49;;;23.99;55.97
62038;BME280;47991;42.974;12.082;2023-05-09T11:20:52;97389.72;;;23.99;56.61
62038;BME280;47991;42.974;12.082;2023-05-09T11:23:29;97387.77;;;24.01;56.86
62038;BME280;47991;42.974;12.082;2023-05-09T11:26:08;97384.92;;;24.02;57.57
62038;BME280;47991;42.974;12.082;2023-05-09T11:28:54;97385.02;;;24.03;57.73
62038;BME280;47991;42.974;12.082;2023-05-09T11:32:05;97376.91;;;24.03;58.32
62038;BME280;47991;42.974;12.082;2023-05-09T11:34:49;97377.34;;;24.04;58.53
62038;BME280;47991;42.974;12.082;2023-05-09T11:37:18;97372.47;;;24.08;58.51
62038;BME280;47991;42.974;12.082;2023-05-09T11:40:00;97373.87;;;24.13;58.70
62038;BME280;47991;42.974;12.082;2023-05-09T11:42:47;97367.58;;;24.16;58.52
62038;BME280;47991;42.974;12.082;2023-05-09T11:45:15;97366.57;;;24.19;58.54
62038;BME280;47991;42.974;12.082;2023-05-09T11:47:47;97362.89;;;24.22;58.53
62038;BME280;47991;42.974;12.082;2023-05-09T11:50:17;97361.16;;;24.23;58.41
62038;BME280;47991;42.974;12.082;2023-05-09T11:52:45;97360.14;;;24.24;58.57
62038;BME280;47991;42.974;12.082;2023-05-09T11:55:14;97360.21;;;24.25;58.52
62038;BME280;47991;42.974;12.082;2023-05-09T11:57:48;97355.71;;;24.25;58.20
62038;BME280;47991;42.974;12.082;2023-05-09T12:00:23;97351.66;;;24.24;57.95
62038;BME280;47991;42.974;12.082;2023-05-09T12:03:05;97350.00;;;24.22;57.57
62038;BME280;47991;42.974;12.082;2023-05-09T12:05:48;97351.34;;;24.22;56.60
62038;BME280;47991;42.974;12.082;2023-05-09T12:08:28;97352.48;;;24.21;57.05
62038;BME280;47991;42.974;12.082;2023-05-09T12:11:10;97349.45;;;24.21;57.01
62038;BME280;47991;42.974;12.082;2023-05-09T12:13:49;97347.21;;;24.22;57.18
62038;BME280;47991;42.974;12.082;2023-05-09T12:16:20;97343.15;;;24.22;57.18
62038;BME280;47991;42.974;12.082;2023-05-09T12:19:01;97341.02;;;24.22;57.00
62038;BME280;47991;42.974;12.082;2023-05-09T12:21:41;97341.39;;;24.22;57.00
62038;BME280;47991;42.974;12.082;2023-05-09T12:24:26;97331.36;;;24.21;56.98
62038;BME280;47991;42.974;12.082;2023-05-09T12:26:56;97336.11;;;24.20;56.79
62038;BME280;47991;42.974;12.082;2023-05-09T12:29:25;97333.89;;;24.17;56.82
62038;BME280;47991;42.974;12.082;2023-05-09T12:31:54;97332.33;;;24.13;57.04
62038;BME280;47991;42.974;12.082;2023-05-09T12:34:37;97329.23;;;24.09;57.14
62038;BME280;47991;42.974;12.082;2023-05-09T12:37:19;97329.02;;;24.07;56.81
62038;BME280;47991;42.974;12.082;2023-05-09T12:42:34;97319.69;;;24.06;56.08
